createdAt,value
2023-02-21T00:00:49.840Z,100
2023-02-21T00:01:50.972Z,100
2023-02-21T00:02:50.753Z,100
2023-02-21T00:03:51.056Z,100
2023-02-21T00:04:51.582Z,100
2023-02-21T00:05:52.051Z,100
2023-02-21T00:06:52.409Z,100
2023-02-21T00:07:52.738Z,100
2023-02-21T00:08:53.365Z,100
2023-02-21T00:09:53.668Z,100
2023-02-21T00:10:53.931Z,100
2023-02-21T00:11:54.389Z,100
2023-02-21T00:12:54.706Z,100
2023-02-21T00:13:55.131Z,100
2023-02-21T00:14:55.533Z,100
2023-02-21T00:15:56.162Z,100
2023-02-21T00:16:56.364Z,100
2023-02-21T00:17:56.685Z,100
2023-02-21T00:18:57.200Z,100
2023-02-21T00:19:57.615Z,100
2023-02-21T00:20:57.937Z,100
2023-02-21T00:21:58.329Z,100
2023-02-21T00:22:58.763Z,100
2023-02-21T00:23:58.982Z,100
2023-02-21T00:25:00.140Z,100
2023-02-21T00:25:59.881Z,100
2023-02-21T00:27:00.204Z,100
2023-02-21T00:28:01.767Z,100
2023-02-21T00:29:01.986Z,100
2023-02-21T00:30:01.468Z,100
2023-02-21T00:31:01.822Z,100
2023-02-21T00:32:02.210Z,100
2023-02-21T00:33:03.260Z,100
2023-02-21T00:34:03.053Z,100
2023-02-21T00:35:03.853Z,100
2023-02-21T00:36:04.481Z,100
2023-02-21T00:37:04.376Z,100
2023-02-21T00:38:05.108Z,100
2023-02-21T00:39:05.217Z,100
2023-02-21T00:40:06.443Z,100
2023-02-21T00:41:06.133Z,100
2023-02-21T00:42:06.283Z,100
2023-02-21T00:43:06.873Z,100
2023-02-21T00:44:07.077Z,100
2023-02-21T00:45:08.433Z,100
2023-02-21T00:46:08.145Z,100
2023-02-21T00:47:08.551Z,100
2023-02-21T00:48:08.779Z,100
2023-02-21T00:49:09.390Z,100
2023-02-21T00:50:09.670Z,100
2023-02-21T00:51:10.928Z,100
2023-02-21T00:52:10.440Z,100
2023-02-21T00:53:10.742Z,100
2023-02-21T00:54:11.156Z,100
2023-02-21T00:55:11.677Z,100
2023-02-21T00:56:11.985Z,100
2023-02-21T00:57:12.416Z,100
2023-02-21T00:58:12.819Z,100
2023-02-21T00:59:13.134Z,100
2023-02-21T01:00:22.564Z,100
2023-02-21T01:01:15.514Z,100
2023-02-21T01:02:15.814Z,100
2023-02-21T01:03:15.789Z,100
2023-02-21T01:04:16.474Z,100
2023-02-21T01:05:16.646Z,100
2023-02-21T01:06:17.070Z,100
2023-02-21T01:07:17.383Z,100
2023-02-21T01:08:17.818Z,100
2023-02-21T01:09:18.219Z,100
2023-02-21T01:10:18.939Z,100
2023-02-21T01:11:21.406Z,100
2023-02-21T01:12:19.363Z,100
2023-02-21T01:13:19.780Z,100
2023-02-21T01:14:20.202Z,100
2023-02-21T01:15:20.813Z,100
2023-02-21T01:16:21.029Z,100
2023-02-21T01:17:21.559Z,100
2023-02-21T01:18:21.743Z,100
2023-02-21T01:19:22.199Z,100
2023-02-21T01:20:22.821Z,100
2023-02-21T01:21:23.334Z,100
2023-02-21T01:22:23.512Z,100
2023-02-21T01:23:23.935Z,100
2023-02-21T01:24:24.351Z,100
2023-02-21T01:25:24.673Z,100
2023-02-21T01:26:25.298Z,100
2023-02-21T01:27:25.504Z,100
2023-02-21T01:28:25.824Z,100
2023-02-21T01:29:26.547Z,100
2023-02-21T01:30:26.756Z,99.96
2023-02-21T01:31:27.310Z,99.82
2023-02-21T01:32:27.543Z,99.78
2023-02-21T01:33:27.908Z,99.81
2023-02-21T01:34:28.523Z,99.77
2023-02-21T01:35:28.737Z,99.81
2023-02-21T01:36:29.254Z,99.83
2023-02-21T01:37:29.667Z,99.88
2023-02-21T01:38:32.758Z,99.94
2023-02-21T01:39:30.408Z,99.94
2023-02-21T01:40:30.808Z,99.93
2023-02-21T01:41:31.428Z,99.85
2023-02-21T01:42:31.954Z,99.91
2023-02-21T01:43:32.177Z,99.91
2023-02-21T01:44:46.301Z,99.91
2023-02-21T01:45:42.833Z,99.72
2023-02-21T01:46:35.482Z,99.66
2023-02-21T01:47:35.791Z,99.67
2023-02-21T01:48:37.669Z,99.59
2023-02-21T01:49:39.783Z,99.57
2023-02-21T01:50:37.647Z,99.55
2023-02-21T01:51:40.922Z,99.48
2023-02-21T01:52:38.377Z,99.41
2023-02-21T01:53:39.503Z,99.39
2023-02-21T01:54:45.342Z,99.33
2023-02-21T01:55:43.903Z,99.33
2023-02-21T01:56:43.715Z,99.37
2023-02-21T01:57:45.873Z,99.28
2023-02-21T01:58:45.484Z,99.26
2023-02-21T01:59:44.773Z,99.28
2023-02-21T02:00:45.082Z,99.24
2023-02-21T02:03:52.993Z,99.17
2023-02-21T02:04:53.091Z,99.28
2023-02-21T02:06:53.312Z,99.18
2023-02-21T02:07:54.536Z,99.14
2023-02-21T02:08:53.932Z,99.16
2023-02-21T02:09:54.350Z,99.21
2023-02-21T02:46:28.952Z,98.4
2023-02-21T02:47:34.536Z,98.42
2023-02-21T02:49:36.496Z,98.33
2023-02-21T02:50:34.550Z,98.22
2023-02-21T02:51:36.107Z,98.11
2023-02-21T02:52:35.689Z,98.07
2023-02-21T02:53:35.588Z,98.08
2023-02-21T02:54:35.798Z,98.15
2023-02-21T02:56:38.174Z,98.21
2023-02-21T02:57:38.286Z,98.08
2023-02-21T03:20:16.818Z,97.84
2023-02-21T03:23:22.688Z,97.86
2023-02-21T03:24:25.241Z,97.94
2023-02-21T03:25:24.640Z,97.81
2023-02-21T03:26:23.312Z,97.7
2023-02-21T03:27:25.574Z,97.66
2023-02-21T03:28:25.687Z,97.77
2023-02-21T03:29:25.686Z,97.81
2023-02-21T03:30:25.751Z,97.66
2023-02-21T03:33:31.351Z,97.6
2023-02-21T03:34:31.665Z,97.65
2023-02-21T03:35:31.893Z,97.55
2023-02-21T03:36:33.287Z,97.59
2023-02-21T03:38:35.272Z,97.49
2023-02-21T03:39:35.159Z,97.45
2023-02-21T03:40:35.584Z,97.32
2023-02-21T03:41:35.919Z,97.26
2023-02-21T03:42:36.630Z,97.23
2023-02-21T03:43:36.637Z,97.19
2023-02-21T03:44:37.159Z,97.4
2023-02-21T03:45:37.579Z,97.51
2023-02-21T03:46:40.813Z,97.48
2023-02-21T03:47:38.399Z,97.59
2023-02-21T03:48:38.730Z,97.54
2023-02-21T03:49:39.240Z,97.67
2023-02-21T03:50:39.538Z,97.59
2023-02-21T03:51:39.968Z,97.66
2023-02-21T03:52:40.684Z,97.57
2023-02-21T03:53:40.711Z,97.73
2023-02-21T03:54:41.939Z,97.76
2023-02-21T03:55:41.550Z,97.69
2023-02-21T03:56:42.575Z,97.74
2023-02-21T03:57:42.456Z,97.69
2023-02-21T03:58:42.894Z,97.61
2023-02-21T03:59:43.411Z,97.62
2023-02-21T04:00:43.935Z,97.45
2023-02-21T04:01:44.288Z,97.55
2023-02-21T04:02:44.548Z,97.68
2023-02-21T04:03:45.069Z,97.85
2023-02-21T04:04:46.002Z,97.82
2023-02-21T04:05:45.795Z,97.93
2023-02-21T04:06:46.128Z,97.8
2023-02-21T04:07:46.638Z,97.75
2023-02-21T04:08:47.024Z,97.69
2023-02-21T04:09:48.084Z,97.74
2023-02-21T04:10:52.322Z,97.73
2023-02-21T04:11:50.020Z,97.64
2023-02-21T04:12:50.348Z,97.55
2023-02-21T04:13:50.763Z,97.52
2023-02-21T04:14:51.249Z,97.72
2023-02-21T04:15:51.782Z,97.69
2023-02-21T04:16:52.020Z,97.62
2023-02-21T04:17:52.534Z,97.52
2023-02-21T04:18:53.056Z,97.34
2023-02-21T04:19:53.704Z,97.3
2023-02-21T04:20:53.681Z,97.24
2023-02-21T04:21:54.204Z,97.19
2023-02-21T04:23:03.097Z,97.23
2023-02-21T04:23:55.964Z,97.23
2023-02-21T04:24:57.254Z,97.32
2023-02-21T04:25:56.794Z,97.41
2023-02-21T04:26:57.091Z,97.32
2023-02-21T04:27:57.437Z,97.08
2023-02-21T04:28:57.933Z,96.96
2023-02-21T04:29:58.252Z,96.97
2023-02-21T04:30:59.590Z,96.84
2023-02-21T04:31:59.103Z,96.92
2023-02-21T04:32:59.513Z,96.88
2023-02-21T04:34:11.326Z,96.85
2023-02-21T04:35:05.248Z,97.1
2023-02-21T04:36:05.555Z,97.08
2023-02-21T04:37:05.572Z,97.08
2023-02-21T04:38:05.683Z,96.85
2023-02-21T04:39:07.138Z,96.86
2023-02-21T04:40:07.733Z,96.9
2023-02-21T04:41:07.551Z,96.89
2023-02-21T04:42:07.447Z,96.94
2023-02-21T04:43:07.979Z,96.83
2023-02-21T04:44:08.377Z,96.65
2023-02-21T04:45:09.180Z,96.7
2023-02-21T04:46:09.245Z,96.86
2023-02-21T04:47:09.519Z,96.84
2023-02-21T04:48:09.846Z,96.72
2023-02-21T04:49:13.133Z,96.82
2023-02-21T04:50:10.775Z,96.8
2023-02-21T04:51:15.698Z,96.63
2023-02-21T04:53:14.188Z,96.49
2023-02-21T04:54:14.241Z,96.43
2023-02-21T04:55:15.617Z,96.5
2023-02-21T04:56:15.611Z,96.09
2023-02-21T04:57:16.640Z,96.18
2023-02-21T04:58:15.849Z,96.15
2023-02-21T04:59:16.169Z,95.96
2023-02-21T05:00:16.976Z,95.94
2023-02-21T05:01:19.134Z,95.92
2023-02-21T05:02:17.200Z,96
2023-02-21T05:03:17.618Z,96.12
2023-02-21T05:04:17.996Z,96.25
2023-02-21T05:05:18.690Z,96.3
2023-02-21T05:06:21.145Z,96.2
2023-02-21T05:07:19.181Z,96.14
2023-02-21T05:08:19.904Z,96.07
2023-02-21T05:09:19.904Z,96.21
2023-02-21T05:10:20.738Z,96.04
2023-02-21T05:11:22.584Z,96.14
2023-02-21T05:12:21.162Z,96.21
2023-02-21T05:13:22.187Z,96
2023-02-21T05:14:22.084Z,96.17
2023-02-21T05:15:22.607Z,95.82
2023-02-21T05:16:23.031Z,95.94
2023-02-21T05:17:23.343Z,96.14
2023-02-21T05:18:23.754Z,96.25
2023-02-21T05:19:24.889Z,96.08
2023-02-21T05:20:24.503Z,96.21
2023-02-21T05:21:24.888Z,96.38
2023-02-21T05:22:26.032Z,95.97
2023-02-21T05:23:26.749Z,95.66
2023-02-21T05:24:30.959Z,95.76
2023-02-21T05:25:28.403Z,96.09
2023-02-21T05:26:33.377Z,96.36
2023-02-21T05:27:30.673Z,96.2
2023-02-21T05:28:31.285Z,96.11
2023-02-21T05:29:31.601Z,96.15
2023-02-21T05:30:32.196Z,95.6
2023-02-21T05:31:32.873Z,95.38
2023-02-21T05:32:32.750Z,95.58
2023-02-21T05:33:33.274Z,95.63
2023-02-21T05:34:33.595Z,95.51
2023-02-21T05:35:34.819Z,95.48
2023-02-21T05:36:34.416Z,95.5
2023-02-21T05:37:34.831Z,95.45
2023-02-21T05:39:37.205Z,95.5
2023-02-21T05:40:37.519Z,95.5
2023-02-21T05:41:37.933Z,95.47
2023-02-21T05:42:38.350Z,95.23
2023-02-21T05:43:38.553Z,95.46
2023-02-21T05:44:39.379Z,95.32
2023-02-21T05:45:39.673Z,95.29
2023-02-21T05:46:40.034Z,95.12
2023-02-21T05:47:40.329Z,95.11
2023-02-21T05:48:40.642Z,95.1
2023-02-21T05:49:42.301Z,94.84
2023-02-21T05:50:41.566Z,94.83
2023-02-21T05:51:43.932Z,94.98
2023-02-21T05:52:42.406Z,95.03
2023-02-21T05:53:42.621Z,94.96
2023-02-21T05:54:43.853Z,95.2
2023-02-21T05:55:43.665Z,95.29
2023-02-21T05:56:45.310Z,95.16
2023-02-21T05:57:44.691Z,95.16
2023-02-21T05:58:45.108Z,95.24
2023-02-21T05:59:45.118Z,95.05
2023-02-21T06:00:45.626Z,94.59
2023-02-21T06:01:47.175Z,94.35
2023-02-21T06:02:46.269Z,94.59
2023-02-21T06:03:46.936Z,94.66
2023-02-21T06:04:47.303Z,94.95
2023-02-21T06:05:47.620Z,94.97
2023-02-21T06:06:48.027Z,95.01
2023-02-21T06:07:48.757Z,94.87
2023-02-21T06:08:49.673Z,94.88
2023-02-21T06:09:49.487Z,94.69
2023-02-21T06:10:50.071Z,94.61
2023-02-21T06:11:50.105Z,94.86
2023-02-21T06:12:50.351Z,95
2023-02-21T06:13:52.278Z,94.89
2023-02-21T06:14:51.147Z,95.04
2023-02-21T06:15:51.747Z,94.77
2023-02-21T06:16:52.251Z,94.81
2023-02-21T06:17:52.599Z,94.68
2023-02-21T06:18:54.967Z,94.67
2023-02-21T06:19:56.401Z,94.62
2023-02-21T06:20:53.868Z,94.57
2023-02-21T06:21:54.173Z,94.61
2023-02-21T06:22:54.683Z,94.41
2023-02-21T06:23:55.302Z,94.42
2023-02-21T06:24:55.641Z,94.67
2023-02-21T06:25:55.951Z,94.48
2023-02-21T06:26:56.493Z,94.24
2023-02-21T06:27:56.767Z,94.05
2023-02-21T06:28:57.076Z,94.08
2023-02-21T06:29:57.719Z,94.15
2023-02-21T06:30:58.234Z,94.28
2023-02-21T06:32:00.280Z,94.32
2023-02-21T06:32:58.555Z,94.53
2023-02-21T06:33:59.394Z,94.21
2023-02-21T06:34:59.553Z,93.92
2023-02-21T06:36:05.418Z,94.13
2023-02-21T06:37:02.775Z,94.11
2023-02-21T06:38:03.310Z,94.2
2023-02-21T06:39:04.015Z,94.25
2023-02-21T06:40:04.131Z,94.03
2023-02-21T06:41:10.595Z,93.96
2023-02-21T06:42:11.105Z,93.69
2023-02-21T06:43:08.645Z,93.78
2023-02-21T06:44:09.057Z,94.01
2023-02-21T06:45:09.473Z,93.88
2023-02-21T06:46:09.896Z,93.59
2023-02-21T06:47:10.215Z,93.8
2023-02-21T06:48:17.609Z,93.7
2023-02-21T06:49:15.249Z,93.82
2023-02-21T06:50:15.363Z,93.95
2023-02-21T06:51:16.542Z,93.51
2023-02-21T06:52:16.588Z,93.56
2023-02-21T06:53:16.790Z,93.54
2023-02-21T06:54:17.249Z,93.36
2023-02-21T06:55:25.684Z,93.4
2023-02-21T06:56:18.258Z,93.21
2023-02-21T06:57:18.878Z,93.31
2023-02-21T06:58:19.187Z,93.12
2023-02-21T06:59:19.612Z,93.26
2023-02-21T07:00:20.436Z,93.19
2023-02-21T07:01:20.783Z,93.21
2023-02-21T07:02:21.066Z,93.31
2023-02-21T07:03:20.943Z,92.91
2023-02-21T07:04:22.056Z,93.06
2023-02-21T07:05:22.023Z,92.84
2023-02-21T07:06:22.414Z,92.68
2023-02-21T07:07:23.040Z,92.6
2023-02-21T07:08:23.042Z,92.53
2023-02-21T07:09:23.459Z,92.75
2023-02-21T07:10:23.977Z,92.64
2023-02-21T07:11:24.499Z,92.75
2023-02-21T07:12:24.709Z,92.69
2023-02-21T07:13:25.131Z,92.52
2023-02-21T07:14:25.544Z,92.48
2023-02-21T07:15:25.958Z,92.24
2023-02-21T07:16:26.583Z,92.24
2023-02-21T07:17:26.895Z,92.28
2023-02-21T07:18:27.287Z,91.89
2023-02-21T07:19:27.435Z,92.06
2023-02-21T07:20:27.918Z,91.71
2023-02-21T07:21:28.329Z,91.55
2023-02-21T07:22:28.974Z,91.94
2023-02-21T07:23:29.194Z,92.09
2023-02-21T07:24:29.597Z,92.17
2023-02-21T07:25:30.487Z,92.29
2023-02-21T07:26:30.531Z,92.36
2023-02-21T07:27:30.954Z,91.77
2023-02-21T07:28:31.270Z,91.71
2023-02-21T07:29:31.580Z,91.61
2023-02-21T07:30:32.121Z,91.14
2023-02-21T07:31:33.055Z,91.09
2023-02-21T07:32:33.138Z,91.44
2023-02-21T07:33:33.453Z,91.72
2023-02-21T07:34:33.555Z,91.5
2023-02-21T07:35:33.977Z,90.98
2023-02-21T07:36:39.679Z,90.88
2023-02-21T07:37:38.098Z,91.21
2023-02-21T07:38:38.104Z,91.16
2023-02-21T07:39:38.284Z,91.09
2023-02-21T07:40:38.935Z,90.96
2023-02-21T07:41:39.247Z,90.89
2023-02-21T07:42:42.630Z,91.08
2023-02-21T07:43:40.081Z,90.88
2023-02-21T07:44:40.586Z,91
2023-02-21T07:45:40.991Z,90.66
2023-02-21T07:46:41.352Z,90.46
2023-02-21T07:47:41.972Z,90.69
2023-02-21T07:48:42.253Z,90.55
2023-02-21T07:49:42.550Z,90.24
2023-02-21T07:50:43.808Z,90.45
2023-02-21T07:51:43.511Z,90.83
2023-02-21T07:52:45.654Z,90.69
2023-02-21T07:53:44.336Z,90.67
2023-02-21T07:54:45.355Z,90.57
2023-02-21T07:55:45.066Z,90.43
2023-02-21T07:56:49.472Z,90.19
2023-02-21T07:57:47.043Z,90.28
2023-02-21T07:58:47.439Z,89.87
2023-02-21T07:59:48.168Z,90.11
2023-02-21T08:00:48.079Z,89.84
2023-02-21T08:01:48.551Z,89.37
2023-02-21T08:02:49.719Z,89.79
2023-02-21T08:03:50.033Z,89.69
2023-02-21T08:04:52.011Z,89.93
2023-02-21T08:05:50.877Z,89.7
2023-02-21T08:06:51.610Z,89.18
2023-02-21T08:07:51.693Z,89.18
2023-02-21T08:08:52.106Z,89.01
2023-02-21T08:09:52.408Z,89.39
2023-02-21T08:10:53.053Z,89.58
2023-02-21T08:11:53.355Z,89.08
2023-02-21T08:12:53.776Z,88.99
2023-02-21T08:13:54.294Z,88.8
2023-02-21T08:14:54.497Z,89.32
2023-02-21T08:15:54.990Z,89
2023-02-21T08:16:55.250Z,88.91
2023-02-21T08:17:55.767Z,89.13
2023-02-21T08:18:56.151Z,88.58
2023-02-21T08:19:57.090Z,88.54
2023-02-21T08:20:57.937Z,88.78
2023-02-21T08:21:58.137Z,88.58
2023-02-21T08:22:59.470Z,88.76
2023-02-21T08:23:58.870Z,88.78
2023-02-21T08:24:59.167Z,89.14
2023-02-21T08:25:59.598Z,88.98
2023-02-21T08:27:00.109Z,88.48
2023-02-21T08:28:00.540Z,88.69
2023-02-21T08:29:00.856Z,88.58
2023-02-21T08:30:01.585Z,88.53
2023-02-21T08:31:01.597Z,88.47
2023-02-21T08:32:02.419Z,88.36
2023-02-21T08:33:03.127Z,88.27
2023-02-21T08:34:03.152Z,88.47
2023-02-21T08:35:04.684Z,88.45
2023-02-21T08:36:04.382Z,88.58
2023-02-21T08:37:04.060Z,88.62
2023-02-21T08:38:04.790Z,88.96
2023-02-21T08:39:05.927Z,88.1
2023-02-21T08:40:06.229Z,88.27
2023-02-21T08:41:06.057Z,88.44
2023-02-21T08:42:06.331Z,88.04
2023-02-21T08:43:07.189Z,87.97
2023-02-21T08:44:07.494Z,88.15
2023-02-21T08:45:07.901Z,87.97
2023-02-21T08:46:07.908Z,87.75
2023-02-21T08:47:08.225Z,88.01
2023-02-21T08:48:08.633Z,88.05
2023-02-21T08:49:10.194Z,88.13
2023-02-21T08:50:09.891Z,87.95
2023-02-21T08:51:10.093Z,87.96
2023-02-21T08:52:10.433Z,87.64
2023-02-21T08:53:15.294Z,87.4
2023-02-21T08:54:13.292Z,87.4
2023-02-21T08:55:14.334Z,87.64
2023-02-21T08:56:19.872Z,87.38
2023-02-21T08:57:17.514Z,87.53
2023-02-21T08:58:17.924Z,87.35
2023-02-21T08:59:18.476Z,87.24
2023-02-21T09:00:20.814Z,87.21
2023-02-21T09:01:19.104Z,86.85
2023-02-21T09:02:22.024Z,86.53
2023-02-21T09:03:19.728Z,87.14
2023-02-21T09:04:20.214Z,87.03
2023-02-21T09:05:27.312Z,87.23
2023-02-21T09:06:24.958Z,87.44
2023-02-21T09:07:25.563Z,87.22
2023-02-21T09:08:25.689Z,87.08
2023-02-21T09:09:26.220Z,87.03
2023-02-21T09:10:30.828Z,86.74
2023-02-21T09:11:28.387Z,86.93
2023-02-21T09:12:28.891Z,86.88
2023-02-21T09:13:30.214Z,86.81
2023-02-21T09:14:29.813Z,86.53
2023-02-21T09:15:30.144Z,86.32
2023-02-21T09:16:30.390Z,86.42
2023-02-21T09:17:30.953Z,86.74
2023-02-21T09:18:32.716Z,86.83
2023-02-21T09:19:31.895Z,86.83
2023-02-21T09:20:32.315Z,86.75
2023-02-21T09:21:34.182Z,86.44
2023-02-21T09:22:34.177Z,86.36
2023-02-21T09:23:34.064Z,85.82
2023-02-21T09:24:34.694Z,85.2
2023-02-21T09:25:34.812Z,85.29
2023-02-21T09:26:35.350Z,85.3
2023-02-21T09:27:35.795Z,85.97
2023-02-21T09:28:36.058Z,85.81
2023-02-21T09:29:45.853Z,85.79
2023-02-21T09:30:38.642Z,85.15
2023-02-21T09:31:39.058Z,84.73
2023-02-21T09:32:40.644Z,84.82
2023-02-21T09:33:40.279Z,85.32
2023-02-21T09:34:40.195Z,85.59
2023-02-21T09:35:40.512Z,85.15
2023-02-21T09:36:40.910Z,85.08
2023-02-21T09:37:43.185Z,84.9
2023-02-21T09:38:41.982Z,85.78
2023-02-21T09:39:42.636Z,85.85
2023-02-21T09:41:46.981Z,85.9
2023-02-21T09:42:49.460Z,85.85
2023-02-21T09:43:50.273Z,86.26
2023-02-21T09:44:48.357Z,86.34
2023-02-21T09:45:50.099Z,86.67
2023-02-21T09:46:56.255Z,86.08
2023-02-21T09:47:54.818Z,86.29
2023-02-21T09:48:54.018Z,85.88
2023-02-21T09:49:59.331Z,85.67
2023-02-21T09:51:01.386Z,85.81
2023-02-21T09:52:01.407Z,85.56
2023-02-21T09:53:00.273Z,85.64
2023-02-21T09:54:02.126Z,85.75
2023-02-21T09:55:05.498Z,85.94
2023-02-21T09:56:07.874Z,85.96
2023-02-21T09:57:10.845Z,85.68
2023-02-21T09:58:18.043Z,85.26
2023-02-21T09:59:14.258Z,85.27
2023-02-21T10:00:20.241Z,85.17
2023-02-21T10:13:46.490Z,85.33
2023-02-21T10:21:13.305Z,82.59
2023-02-21T10:23:16.843Z,83.18
2023-02-21T10:27:22.492Z,83.12
2023-02-21T10:28:24.589Z,82.79
2023-02-21T10:29:31.230Z,82.93
2023-02-21T10:30:32.575Z,82.43
2023-02-21T10:31:34.318Z,82.61
2023-02-21T10:32:27.625Z,82.34
2023-02-21T10:33:27.668Z,82.04
2023-02-21T10:34:29.827Z,82.22
2023-02-21T10:35:28.008Z,82.29
2023-02-21T10:36:28.612Z,82.83
2023-02-21T10:38:32.530Z,83.42
2023-02-21T10:40:42.676Z,83.64
2023-02-21T10:41:41.852Z,83.57
2023-02-21T10:42:45.645Z,83.83
2023-02-21T10:43:51.688Z,84.21
2023-02-21T10:44:45.347Z,84.05
2023-02-21T10:48:00.830Z,84.16
2023-02-21T10:48:55.829Z,84.51
2023-02-21T10:50:04.235Z,84.63
2023-02-21T10:52:59.165Z,85.27
2023-02-21T10:57:16.046Z,85.17
2023-02-21T10:58:11.151Z,85.04
2023-02-21T10:59:09.611Z,84.92
2023-02-21T11:00:10.656Z,84.27
2023-02-21T11:03:25.013Z,83.51
2023-02-21T11:05:23.919Z,83.47
2023-02-21T11:07:25.440Z,83.99
2023-02-21T11:10:39.885Z,82.82
2023-02-21T11:11:37.236Z,82.59
2023-02-21T11:12:35.198Z,82.7
2023-02-21T11:13:35.708Z,83.13
2023-02-21T11:14:35.929Z,83.33
2023-02-21T11:15:36.065Z,83.93
2023-02-21T11:16:36.445Z,83.06
2023-02-21T11:17:36.757Z,82.74
2023-02-21T11:18:37.312Z,82.73
2023-02-21T11:20:41.412Z,83.73
2023-02-21T11:21:42.634Z,83.36
2023-02-21T11:22:51.874Z,82.62
2023-02-21T11:25:49.530Z,82.12
2023-02-21T11:26:52.816Z,82.57
2023-02-21T11:28:53.029Z,82.06
2023-02-21T11:29:54.045Z,83.05
2023-02-21T11:31:57.053Z,82.64
2023-02-21T11:32:58.980Z,82.08
2023-02-21T11:34:03.292Z,82.31
2023-02-21T11:37:05.445Z,82.61
2023-02-21T11:38:09.171Z,83.19
2023-02-21T11:45:28.656Z,83.77
2023-02-21T11:48:29.596Z,82.79
2023-02-21T11:50:38.824Z,82.96
2023-02-21T11:53:44.174Z,82.98
2023-02-21T11:54:44.396Z,82.9
2023-02-21T12:54:14.770Z,82.65
2023-02-21T12:57:18.586Z,82.75
2023-02-21T13:13:50.431Z,85.21
2023-02-21T13:14:59.351Z,84.86
2023-02-21T13:15:52.442Z,85.01
2023-02-21T13:16:53.861Z,85
2023-02-21T13:19:02.212Z,85.09
2023-02-21T13:32:20.662Z,84.45
2023-02-21T13:34:29.569Z,84.5
2023-02-21T13:35:35.767Z,84.91
2023-02-21T13:36:42.387Z,85.07
2023-02-21T13:37:32.081Z,84.45
2023-02-21T13:38:32.331Z,83.98
2023-02-21T13:39:32.788Z,83.67
2023-02-21T13:41:39.555Z,83.93
2023-02-21T13:42:39.565Z,83.46
2023-02-21T13:43:45.511Z,83.33
2023-02-21T13:44:45.214Z,83.49
2023-02-21T13:45:42.857Z,83.69
2023-02-21T13:57:04.239Z,83.69
2023-02-21T14:01:21.761Z,84.23
2023-02-21T14:03:33.150Z,84.45
2023-02-21T14:08:43.523Z,84.04
2023-02-21T14:09:42.612Z,83.73
2023-02-21T14:11:48.672Z,84.39
2023-02-21T14:12:54.409Z,84.56
2023-02-21T14:14:50.659Z,84.66
2023-02-21T14:17:54.343Z,84.24
2023-02-21T14:20:00.594Z,84.3
2023-02-21T14:21:02.039Z,84.54
2023-02-21T14:23:05.522Z,84.34
2023-02-21T14:30:23.364Z,84.71
2023-02-21T14:31:16.166Z,84.73
2023-02-21T14:32:24.704Z,84.3
2023-02-21T14:33:24.248Z,83.94
2023-02-21T14:34:30.696Z,84.02
2023-02-21T14:35:29.268Z,83.97
2023-02-21T14:36:30.618Z,84.05
2023-02-21T14:38:39.626Z,84.75
2023-02-21T14:39:43.010Z,84.84
2023-02-21T15:12:13.836Z,83.5
2023-02-21T15:14:24.719Z,83.64
2023-02-21T15:15:27.678Z,83.57
2023-02-21T15:16:21.156Z,83.93
2023-02-21T15:17:22.987Z,84.12
2023-02-21T15:19:30.803Z,83.99
2023-02-21T15:20:28.744Z,83.96
2023-02-21T15:21:28.845Z,84.15
2023-02-21T15:22:29.170Z,84.22
2023-02-21T15:23:30.064Z,83.63
2023-02-21T15:24:30.006Z,83.56
2023-02-21T15:25:30.317Z,83.84
2023-02-21T15:26:32.254Z,84.09
2023-02-21T15:27:31.241Z,83.97
2023-02-21T15:28:33.202Z,84.23
2023-02-21T15:29:31.871Z,84.49
2023-02-21T15:30:42.124Z,84.02
2023-02-21T15:31:43.856Z,83.86
2023-02-21T15:32:36.902Z,84.05
2023-02-21T15:33:44.093Z,84.13
2023-02-21T15:34:47.570Z,83.71
2023-02-21T15:35:54.826Z,83.63
2023-02-21T15:36:53.219Z,83.84
2023-02-21T15:37:51.483Z,84.09
2023-02-21T15:40:58.557Z,84.43
2023-02-21T15:41:56.419Z,84.46
2023-02-21T15:42:56.535Z,84.29
2023-02-21T15:45:03.613Z,85.1
2023-02-21T15:46:04.360Z,85.26
2023-02-21T15:48:05.992Z,85.2
2023-02-21T15:49:06.701Z,85.38
2023-02-21T15:51:12.150Z,85.32
2023-02-21T15:57:24.697Z,86.16
2023-02-21T15:59:28.807Z,86.1
2023-02-21T16:01:28.625Z,86.51
2023-02-21T16:02:31.980Z,86.56
2023-02-21T16:04:37.328Z,86.78
2023-02-21T16:05:34.771Z,86.84
2023-02-21T16:06:35.293Z,86.98
2023-02-21T16:07:37.280Z,87.22
2023-02-21T16:08:38.984Z,87.2
2023-02-21T16:09:36.832Z,87.43
2023-02-21T16:10:37.059Z,87.35
2023-02-21T16:12:42.994Z,86.97
2023-02-21T16:13:41.381Z,86.95
2023-02-21T16:15:45.514Z,87.21
2023-02-21T16:16:46.828Z,87.09
2023-02-21T16:19:55.543Z,86.54
2023-02-21T16:28:13.940Z,86.47
2023-02-21T16:29:13.849Z,86.69
2023-02-21T16:32:20.187Z,87.34
2023-02-21T16:33:17.868Z,87.39
2023-02-21T16:34:18.272Z,87.45
2023-02-21T16:35:22.700Z,87.46
2023-02-21T16:36:31.695Z,87.63
2023-02-21T16:37:25.351Z,87.74
2023-02-21T16:38:25.880Z,87.89
2023-02-21T16:39:24.958Z,87.97
2023-02-21T16:40:30.619Z,87.78
2023-02-21T16:41:28.052Z,88.04
2023-02-21T16:42:28.890Z,88.16
2023-02-21T16:43:29.696Z,88.28
2023-02-21T16:44:29.195Z,88.33
2023-02-21T16:45:30.749Z,88.49
2023-02-21T16:46:30.622Z,88.46
2023-02-21T16:47:30.537Z,88.69
2023-02-21T16:48:31.573Z,88.73
2023-02-21T16:49:31.168Z,89.1
2023-02-21T16:50:37.206Z,89.25
2023-02-21T16:51:34.533Z,89.21
2023-02-21T16:52:35.178Z,89.39
2023-02-21T16:53:35.374Z,89.49
2023-02-21T16:54:35.714Z,89.7
2023-02-21T16:55:36.330Z,89.73
2023-02-21T16:56:37.174Z,90.02
2023-02-21T16:57:36.969Z,90.05
2023-02-21T16:58:39.949Z,90.16
2023-02-21T16:59:37.794Z,90.25
2023-02-21T17:00:38.215Z,90.07
2023-02-21T17:01:38.505Z,89.98
2023-02-21T17:02:39.882Z,90.1
2023-02-21T17:03:39.146Z,89.97
2023-02-21T17:04:39.664Z,89.97
2023-02-21T17:05:40.096Z,89.99
2023-02-21T17:06:40.503Z,89.74
2023-02-21T17:07:40.819Z,89.64
2023-02-21T17:08:41.128Z,89.67
2023-02-21T17:09:41.408Z,89.75
2023-02-21T17:10:41.961Z,89.67
2023-02-21T17:11:42.270Z,89.57
2023-02-21T17:12:42.680Z,89.65
2023-02-21T17:13:43.006Z,89.67
2023-02-21T17:14:46.097Z,89.71
2023-02-21T17:15:44.267Z,89.74
2023-02-21T17:16:44.285Z,89.74
2023-02-21T17:17:52.765Z,89.79
2023-02-21T17:18:48.980Z,89.84
2023-02-21T17:19:46.428Z,89.96
2023-02-21T17:20:46.731Z,89.89
2023-02-21T17:21:48.182Z,89.74
2023-02-21T17:22:47.672Z,89.6
2023-02-21T17:23:48.007Z,89.3
2023-02-21T17:24:49.327Z,89.12
2023-02-21T17:25:49.020Z,89.1
2023-02-21T17:26:52.923Z,89.11
2023-02-21T17:27:52.430Z,89.34
2023-02-21T17:28:50.793Z,89.43
2023-02-21T17:29:50.838Z,89.57
2023-02-21T17:30:51.652Z,89.78
2023-02-21T17:31:56.042Z,90.01
2023-02-21T17:32:54.197Z,90.14
2023-02-21T17:33:53.789Z,89.95
2023-02-21T17:34:54.205Z,89.68
2023-02-21T17:35:54.417Z,89.85
2023-02-21T17:36:54.828Z,89.88
2023-02-21T17:37:55.771Z,90.12
2023-02-21T17:38:58.453Z,90.24
2023-02-21T17:39:56.995Z,89.96
2023-02-21T17:40:56.801Z,90.09
2023-02-21T17:41:57.086Z,90.31
2023-02-21T17:42:58.041Z,90.42
2023-02-21T17:43:57.847Z,90.13
2023-02-21T17:44:58.295Z,90.17
2023-02-21T17:45:58.680Z,90.23
2023-02-21T17:46:59.182Z,90.23
2023-02-21T17:47:59.815Z,90.52
2023-02-21T17:48:59.719Z,90.45
2023-02-21T17:50:02.757Z,90.5
2023-02-21T17:51:00.438Z,90.79
2023-02-21T17:52:00.971Z,90.79
2023-02-21T17:53:02.532Z,90.85
2023-02-21T17:54:01.826Z,90.64
2023-02-21T17:55:02.033Z,90.69
2023-02-21T17:56:02.539Z,90.14
2023-02-21T17:57:02.607Z,90.07
2023-02-21T17:58:03.134Z,90.21
2023-02-21T17:59:03.331Z,89.95
2023-02-21T18:00:10.509Z,89.9
2023-02-21T18:01:10.000Z,89.92
2023-02-21T18:02:08.221Z,90.07
2023-02-21T18:03:09.631Z,90.34
2023-02-21T18:04:10.156Z,90.3
2023-02-21T18:05:09.755Z,90.27
2023-02-21T18:06:09.776Z,90.37
2023-02-21T18:07:11.861Z,90.28
2023-02-21T18:08:10.595Z,90.27
2023-02-21T18:09:10.808Z,90.51
2023-02-21T18:10:11.332Z,90.73
2023-02-21T18:11:14.132Z,90.83
2023-02-21T18:12:12.168Z,90.88
2023-02-21T18:13:21.893Z,90.91
2023-02-21T18:14:14.222Z,90.74
2023-02-21T18:15:15.905Z,90.68
2023-02-21T18:16:15.398Z,90.57
2023-02-21T18:17:15.293Z,90.7
2023-02-21T18:18:15.913Z,90.93
2023-02-21T18:19:16.309Z,90.97
2023-02-21T18:20:17.535Z,90.86
2023-02-21T18:21:17.679Z,90.79
2023-02-21T18:22:17.344Z,90.8